Time,TemperatureF,DewpointF,PressureIn,WindDirection,WindDirectionDegrees,WindSpeedMPH,WindSpeedGustMPH,Humidity,HourlyPrecipIn,Conditions,Clouds,dailyrainin,SolarRadiationWatts/m^2,SoftwareType,DateUTC
2014-02-23 00:01:00,17.0,14.0,-100.00,ESE,108,2.0,4.0,86,0.00,,,0.00,0.000000,,2014-02-23 08:01:00,
2014-02-23 00:43:00,15.0,12.0,-100.00,ESE,108,1.0,3.0,87,0.00,,,0.00,0.000000,,2014-02-23 08:43:00,
2014-02-23 00:52:00,15.0,12.0,-100.00,ESE,108,1.0,3.0,87,0.00,,,0.00,0.000000,,2014-02-23 08:52:00,
2014-02-23 01:02:00,15.0,12.0,-100.00,ESE,108,1.0,3.0,87,0.00,,,0.00,0.000000,,2014-02-23 09:02:00,
2014-02-23 01:43:00,14.0,11.0,-100.00,East,94,2.0,2.0,89,0.00,,,0.00,0.000000,,2014-02-23 09:43:00,
2014-02-23 01:53:00,14.0,11.0,-100.00,East,94,2.0,2.0,89,0.00,,,0.00,0.000000,,2014-02-23 09:53:00,
2014-02-23 02:03:00,14.0,11.0,-100.00,East,94,2.0,2.0,89,0.00,,,0.00,0.000000,,2014-02-23 10:03:00,
2014-02-23 02:43:00,14.0,11.0,-100.00,East,96,2.0,4.0,89,0.00,,,0.00,0.000000,,2014-02-23 10:43:00,
2014-02-23 02:52:00,14.0,11.0,-100.00,East,96,2.0,4.0,89,0.00,,,0.00,0.000000,,2014-02-23 10:52:00,
2014-02-23 03:02:00,14.0,11.0,-100.00,East,96,2.0,4.0,89,0.00,,,0.00,0.000000,,2014-02-23 11:02:00,
2014-02-23 03:42:00,16.0,13.0,-100.00,ESE,103,2.0,4.0,88,0.00,,,0.00,0.000000,,2014-02-23 11:42:00,
2014-02-23 03:52:00,16.0,13.0,-100.00,ESE,103,2.0,4.0,88,0.00,,,0.00,0.000000,,2014-02-23 11:52:00,
2014-02-23 04:02:00,16.0,13.0,-100.00,ESE,103,2.0,4.0,88,0.00,,,0.00,0.000000,,2014-02-23 12:02:00,
2014-02-23 04:42:00,17.0,14.0,-100.00,East,87,2.0,4.0,87,0.00,,,0.00,0.000000,,2014-02-23 12:42:00,
2014-02-23 04:52:00,17.0,14.0,-100.00,East,87,2.0,4.0,87,0.00,,,0.00,0.000000,,2014-02-23 12:52:00,
2014-02-23 05:01:00,17.0,14.0,-100.00,East,87,2.0,4.0,87,0.00,,,0.00,0.000000,,2014-02-23 13:01:00,
2014-02-23 05:42:00,18.0,15.0,-100.00,East,93,2.0,4.0,87,0.00,,,0.00,0.000000,,2014-02-23 13:42:00,
2014-02-23 05:53:00,18.0,15.0,-100.00,East,93,2.0,4.0,87,0.00,,,0.00,0.000000,,2014-02-23 13:53:00,
2014-02-23 06:02:00,18.0,15.0,-100.00,East,93,2.0,4.0,87,0.00,,,0.00,0.000000,,2014-02-23 14:02:00,
2014-02-23 06:42:00,19.0,16.0,-100.00,ENE,75,1.0,4.0,86,0.00,,,0.00,0.000000,,2014-02-23 14:42:00,
2014-02-23 06:52:00,19.0,16.0,-100.00,ENE,75,1.0,4.0,86,0.00,,,0.00,0.000000,,2014-02-23 14:52:00,
2014-02-23 07:02:00,19.0,16.0,-100.00,ENE,75,1.0,4.0,86,0.00,,,0.00,0.000000,,2014-02-23 15:02:00,
2014-02-23 07:44:00,19.0,16.0,-100.00,East,97,2.0,2.0,86,0.00,,,0.00,3.000000,,2014-02-23 15:44:00,
2014-02-23 07:53:00,19.0,16.0,-100.00,East,97,2.0,2.0,86,0.00,,,0.00,3.000000,,2014-02-23 15:53:00,
2014-02-23 08:03:00,19.0,16.0,-100.00,East,97,2.0,2.0,86,0.00,,,0.00,3.000000,,2014-02-23 16:03:00,
2014-02-23 08:43:00,22.0,17.0,-100.00,NNW,347,1.0,3.0,82,0.00,,,0.00,37.000000,,2014-02-23 16:43:00,
2014-02-23 08:53:00,22.0,17.0,-100.00,NNW,347,1.0,3.0,82,0.00,,,0.00,37.000000,,2014-02-23 16:53:00,
2014-02-23 09:02:00,22.0,17.0,-100.00,NNW,347,1.0,3.0,82,0.00,,,0.00,37.000000,,2014-02-23 17:02:00,
2014-02-23 09:42:00,24.0,19.0,-100.00,NW,323,3.0,6.0,80,0.00,,,0.00,64.000000,,2014-02-23 17:42:00,
2014-02-23 09:52:00,24.0,19.0,-100.00,NW,323,3.0,6.0,80,0.00,,,0.00,64.000000,,2014-02-23 17:52:00,
2014-02-23 10:01:00,24.0,19.0,-100.00,NW,323,3.0,6.0,80,0.00,,,0.00,64.000000,,2014-02-23 18:01:00,
2014-02-23 10:43:00,26.0,21.0,-100.00,NW,306,4.0,7.0,82,0.00,,,0.00,81.000000,,2014-02-23 18:43:00,
2014-02-23 10:52:00,26.0,21.0,-100.00,NW,306,4.0,7.0,82,0.00,,,0.00,81.000000,,2014-02-23 18:52:00,
2014-02-23 11:01:00,26.0,21.0,-100.00,NW,306,4.0,7.0,82,0.00,,,0.00,81.000000,,2014-02-23 19:01:00,
2014-02-23 11:42:00,27.0,21.0,-100.00,NW,316,4.0,9.0,78,0.00,,,0.00,98.000000,,2014-02-23 19:42:00,
2014-02-23 11:52:00,27.0,21.0,-100.00,NW,316,4.0,9.0,78,0.00,,,0.00,98.000000,,2014-02-23 19:52:00,
2014-02-23 12:02:00,27.0,21.0,-100.00,NW,316,4.0,9.0,78,0.00,,,0.00,98.000000,,2014-02-23 20:02:00,
2014-02-23 12:42:00,28.0,23.0,-100.00,NNW,327,4.0,7.0,80,0.00,,,0.00,95.000000,,2014-02-23 20:42:00,
2014-02-23 12:53:00,28.0,23.0,-100.00,NNW,327,4.0,7.0,80,0.00,,,0.00,95.000000,,2014-02-23 20:53:00,
2014-02-23 13:02:00,28.0,23.0,-100.00,NNW,327,4.0,7.0,80,0.00,,,0.00,95.000000,,2014-02-23 21:02:00,
2014-02-23 13:43:00,27.0,22.0,-100.00,NW,321,5.0,8.0,82,0.00,,,0.00,71.000000,,2014-02-23 21:43:00,
2014-02-23 13:53:00,27.0,22.0,-100.00,NW,321,5.0,8.0,82,0.00,,,0.00,71.000000,,2014-02-23 21:53:00,
2014-02-23 14:02:00,27.0,22.0,-100.00,NW,321,5.0,8.0,82,0.00,,,0.00,71.000000,,2014-02-23 22:02:00,
2014-02-23 14:43:00,27.0,24.0,-100.00,NW,321,4.0,10.0,87,0.00,,,0.00,44.000000,,2014-02-23 22:43:00,
2014-02-23 14:53:00,27.0,24.0,-100.00,NW,321,4.0,10.0,87,0.00,,,0.00,44.000000,,2014-02-23 22:53:00,
2014-02-23 15:02:00,27.0,24.0,-100.00,NW,321,4.0,10.0,87,0.00,,,0.00,44.000000,,2014-02-23 23:02:00,
2014-02-23 15:42:00,26.0,23.0,-100.00,NW,310,4.0,10.0,88,0.00,,,0.00,35.000000,,2014-02-23 23:42:00,
2014-02-23 15:53:00,26.0,23.0,-100.00,NW,310,4.0,10.0,88,0.00,,,0.00,35.000000,,2014-02-23 23:53:00,
2014-02-23 16:02:00,26.0,23.0,-100.00,NW,310,4.0,10.0,88,0.00,,,0.00,35.000000,,2014-02-24 00:02:00,
2014-02-23 16:42:00,25.0,22.0,-100.00,NW,316,4.0,8.0,90,0.00,,,0.00,14.000000,,2014-02-24 00:42:00,
2014-02-23 16:52:00,25.0,22.0,-100.00,NW,316,4.0,8.0,90,0.00,,,0.00,14.000000,,2014-02-24 00:52:00,
2014-02-23 17:02:00,25.0,22.0,-100.00,NW,316,4.0,8.0,90,0.00,,,0.00,14.000000,,2014-02-24 01:02:00,
2014-02-23 17:42:00,24.0,22.0,-100.00,NW,322,4.0,7.0,91,0.00,,,0.00,5.000000,,2014-02-24 01:42:00,
2014-02-23 17:52:00,24.0,22.0,-100.00,NW,322,4.0,7.0,91,0.00,,,0.00,5.000000,,2014-02-24 01:52:00,
2014-02-23 18:01:00,24.0,22.0,-100.00,NW,322,4.0,7.0,91,0.00,,,0.00,5.000000,,2014-02-24 02:01:00,
2014-02-23 18:42:00,24.0,22.0,-100.00,NW,325,3.0,8.0,91,0.00,,,0.00,0.000000,,2014-02-24 02:42:00,
2014-02-23 18:52:00,24.0,22.0,-100.00,NW,325,3.0,8.0,91,0.00,,,0.00,0.000000,,2014-02-24 02:52:00,
2014-02-23 19:02:00,24.0,22.0,-100.00,NW,325,3.0,8.0,91,0.00,,,0.00,0.000000,,2014-02-24 03:02:00,
2014-02-23 19:43:00,23.0,21.0,-100.00,NW,307,4.0,8.0,92,0.00,,,0.00,0.000000,,2014-02-24 03:43:00,
2014-02-23 19:53:00,23.0,21.0,-100.00,NW,307,4.0,8.0,92,0.00,,,0.00,0.000000,,2014-02-24 03:53:00,
2014-02-23 20:03:00,23.0,21.0,-100.00,NW,307,4.0,8.0,92,0.00,,,0.00,0.000000,,2014-02-24 04:03:00,
2014-02-23 20:43:00,23.0,21.0,-100.00,NNW,328,4.0,7.0,91,0.00,,,0.00,0.000000,,2014-02-24 04:43:00,
2014-02-23 20:53:00,23.0,21.0,-100.00,NNW,328,4.0,7.0,91,0.00,,,0.00,0.000000,,2014-02-24 04:53:00,
2014-02-23 21:02:00,23.0,21.0,-100.00,NNW,328,4.0,7.0,91,0.00,,,0.00,0.000000,,2014-02-24 05:02:00,
2014-02-23 21:43:00,23.0,21.0,-100.00,NW,323,4.0,11.0,92,0.00,,,0.00,0.000000,,2014-02-24 05:43:00,
2014-02-23 21:53:00,23.0,21.0,-100.00,NW,323,4.0,11.0,92,0.00,,,0.00,0.000000,,2014-02-24 05:53:00,
2014-02-23 22:02:00,23.0,21.0,-100.00,NW,323,4.0,11.0,92,0.00,,,0.00,0.000000,,2014-02-24 06:02:00,
2014-02-23 22:42:00,23.0,21.0,-100.00,NW,315,4.0,7.0,91,0.00,,,0.00,0.000000,,2014-02-24 06:42:00,
2014-02-23 22:52:00,23.0,21.0,-100.00,NW,315,4.0,7.0,91,0.00,,,0.00,0.000000,,2014-02-24 06:52:00,
2014-02-23 23:01:00,23.0,21.0,-100.00,NW,315,4.0,7.0,91,0.00,,,0.00,0.000000,,2014-02-24 07:01:00,
2014-02-23 23:42:00,22.0,20.0,-100.00,NNW,331,3.0,7.0,91,0.00,,,0.00,0.000000,,2014-02-24 07:42:00,
2014-02-23 23:52:00,22.0,20.0,-100.00,NNW,331,3.0,7.0,91,0.00,,,0.00,0.000000,,2014-02-24 07:52:00,